createdAt,value
2017-11-13T06:02:37.401Z,5.40
2017-11-13T06:05:09.286Z,5.40
2017-11-13T06:07:41.985Z,5.30
2017-11-13T06:10:13.865Z,5.30
2017-11-13T06:12:45.774Z,5.30
2017-11-13T06:15:17.649Z,5.30
2017-11-13T06:17:50.313Z,5.20
2017-11-13T06:20:22.192Z,5.20
2017-11-13T06:22:54.869Z,5.20
2017-11-13T06:25:27.540Z,5.20
2017-11-13T06:27:59.462Z,5.20
2017-11-13T06:30:31.350Z,5.20
2017-11-13T06:33:03.269Z,5.20
2017-11-13T06:35:35.145Z,5.30
2017-11-13T06:38:07.045Z,5.30
2017-11-13T06:40:39.690Z,5.30
2017-11-13T06:43:11.673Z,5.30
2017-11-13T06:45:43.552Z,5.40
2017-11-13T06:48:16.230Z,5.40
2017-11-13T06:50:48.876Z,5.40
2017-11-13T06:53:20.769Z,5.40
2017-11-13T06:55:53.425Z,5.50
2017-11-13T06:58:25.332Z,5.50
2017-11-13T07:00:57.217Z,5.50
2017-11-13T07:03:29.133Z,5.50
2017-11-13T07:06:01.770Z,5.60
2017-11-13T07:08:33.682Z,5.60
2017-11-13T07:11:05.564Z,5.70
2017-11-13T07:13:37.470Z,5.70
2017-11-13T07:16:09.343Z,5.80
2017-11-13T07:18:42.040Z,5.80
2017-11-13T07:21:13.933Z,5.80
2017-11-13T07:23:45.843Z,5.80
2017-11-13T07:26:18.510Z,5.80
2017-11-13T07:28:50.408Z,5.80
2017-11-13T07:31:22.289Z,5.80
2017-11-13T07:33:54.192Z,5.80
2017-11-13T07:36:26.073Z,5.90
2017-11-13T07:38:58.733Z,5.90
2017-11-13T07:41:30.610Z,5.90
2017-11-13T07:44:03.289Z,6.00
2017-11-13T07:46:35.946Z,6.00
2017-11-13T07:49:08.644Z,6.10
2017-11-13T07:51:41.293Z,6.10
2017-11-13T07:54:13.210Z,6.10
2017-11-13T07:56:45.104Z,6.20
2017-11-13T07:59:16.992Z,6.30
2017-11-13T08:01:49.641Z,6.30
2017-11-13T08:04:21.556Z,6.30
2017-11-13T08:06:54.507Z,6.40
2017-11-13T08:09:26.417Z,6.50
2017-11-13T08:11:58.295Z,6.50
2017-11-13T08:14:30.182Z,6.40
2017-11-13T08:17:02.106Z,6.40
2017-11-13T08:19:34.008Z,6.40
2017-11-13T08:22:05.881Z,6.40
2017-11-13T08:24:38.541Z,6.50
2017-11-13T08:27:10.428Z,6.40
2017-11-13T08:29:43.096Z,6.40
2017-11-13T08:32:15.741Z,6.40
2017-11-13T08:34:47.685Z,6.40
2017-11-13T08:37:19.565Z,6.30
2017-11-13T08:39:51.527Z,6.40
2017-11-13T08:42:23.411Z,6.30
2017-11-13T08:44:55.321Z,6.30
2017-11-13T08:47:27.202Z,6.30
2017-11-13T08:49:59.120Z,6.30
2017-11-13T08:52:31.005Z,6.40
2017-11-13T08:55:02.930Z,6.40
2017-11-13T08:57:35.594Z,6.40
2017-11-13T09:00:08.278Z,6.40
2017-11-13T09:02:40.157Z,6.40
2017-11-13T09:05:12.829Z,6.50
2017-11-13T09:07:45.489Z,6.60
2017-11-13T09:10:17.434Z,6.60
2017-11-13T09:12:49.318Z,6.60
2017-11-13T09:15:21.225Z,6.60
2017-11-13T09:17:53.109Z,6.60
2017-11-13T09:20:25.018Z,6.60
2017-11-13T09:22:57.704Z,6.60
2017-11-13T09:25:29.613Z,6.60
2017-11-13T09:28:01.500Z,6.70
2017-11-13T09:30:34.172Z,6.80
2017-11-13T09:33:06.073Z,6.80
2017-11-13T09:35:37.986Z,7.00
2017-11-13T09:38:09.862Z,7.00
2017-11-13T09:40:42.546Z,7.20
2017-11-13T09:43:15.197Z,7.20
2017-11-13T09:45:47.081Z,7.20
2017-11-13T09:48:19.740Z,7.30
2017-11-13T09:50:51.636Z,7.30
2017-11-13T09:53:23.509Z,7.40
2017-11-13T09:55:55.433Z,7.40
2017-11-13T09:58:27.304Z,7.40
2017-11-13T10:00:59.971Z,7.60
2017-11-13T10:03:32.168Z,7.50
2017-11-13T10:06:04.069Z,7.60
2017-11-13T10:08:35.965Z,7.70
2017-11-13T10:11:08.637Z,7.70
2017-11-13T10:13:40.537Z,7.60
2017-11-13T10:16:12.417Z,7.70
2017-11-13T10:18:44.305Z,7.60
2017-11-13T10:21:16.220Z,7.70
2017-11-13T10:23:48.102Z,7.70
2017-11-13T10:26:20.009Z,7.80
2017-11-13T10:28:52.645Z,8.00
2017-11-13T10:31:25.339Z,8.00
2017-11-13T10:33:57.227Z,8.20
2017-11-13T10:36:29.904Z,8.20
2017-11-13T10:39:02.551Z,8.20
2017-11-13T10:41:34.463Z,8.10
2017-11-13T10:44:06.336Z,8.20
2017-11-13T10:46:38.262Z,8.20
2017-11-13T10:49:10.905Z,8.30
2017-11-13T10:51:42.823Z,8.20
2017-11-13T10:54:14.701Z,8.30
2017-11-13T10:56:46.634Z,8.40
2017-11-13T10:59:19.269Z,8.50
2017-11-13T11:01:51.177Z,8.40
2017-11-13T11:04:23.830Z,8.60
2017-11-13T11:06:55.747Z,8.60
2017-11-13T11:09:27.667Z,8.60
2017-11-13T11:12:00.337Z,8.60
2017-11-13T11:14:32.272Z,8.60
2017-11-13T11:17:04.161Z,8.70
2017-11-13T11:19:36.809Z,8.70
2017-11-13T11:22:08.721Z,8.70
2017-11-13T11:24:40.625Z,8.80
2017-11-13T11:27:12.521Z,8.90
2017-11-13T11:29:45.167Z,9.20
2017-11-13T11:32:17.072Z,9.20
2017-11-13T11:34:49.709Z,9.30
2017-11-13T11:37:21.593Z,9.30
2017-11-13T11:39:53.495Z,9.20
2017-11-13T11:42:25.417Z,9.10
2017-11-13T11:44:58.061Z,9.00
2017-11-13T11:47:29.950Z,9.00
2017-11-13T11:50:01.821Z,9.00
2017-11-13T11:52:34.493Z,8.90
2017-11-13T11:55:07.137Z,8.90
2017-11-13T11:57:39.042Z,8.80
2017-11-13T12:00:11.718Z,9.00
2017-11-13T12:02:44.393Z,9.00
2017-11-13T12:05:17.057Z,9.10
2017-11-13T12:07:48.951Z,9.10
2017-11-13T12:10:21.594Z,9.20
2017-11-13T12:12:53.505Z,9.20
2017-11-13T12:15:25.381Z,9.30
2017-11-13T12:17:57.277Z,9.40
2017-11-13T12:20:29.161Z,9.40
2017-11-13T12:23:01.858Z,9.30
2017-11-13T12:25:34.530Z,9.30
2017-11-13T12:28:06.465Z,9.30
2017-11-13T12:30:39.117Z,9.20
2017-11-13T12:33:11.013Z,9.20
2017-11-13T12:35:43.655Z,9.20
2017-11-13T12:38:16.335Z,9.20
2017-11-13T12:40:48.218Z,9.20
2017-11-13T12:43:21.705Z,9.20
2017-11-13T12:45:53.578Z,9.20
2017-11-13T12:48:25.774Z,9.20
2017-11-13T12:50:57.649Z,9.30
2017-11-13T12:53:29.556Z,9.30
2017-11-13T12:56:01.439Z,9.40
2017-11-13T12:58:34.108Z,9.40
2017-11-13T13:01:06.753Z,9.50
2017-11-13T13:03:38.661Z,9.40
2017-11-13T13:06:10.549Z,9.50
2017-11-13T13:08:42.454Z,9.40
2017-11-13T13:11:14.329Z,9.40
2017-11-13T13:13:46.993Z,9.30
2017-11-13T13:16:18.869Z,9.30
2017-11-13T13:18:51.543Z,9.40
2017-11-13T13:21:23.421Z,9.40
2017-11-13T13:23:56.101Z,9.50
2017-11-13T13:26:27.976Z,9.50
2017-11-13T13:28:59.869Z,9.60
2017-11-13T13:31:31.749Z,9.60
2017-11-13T13:34:03.663Z,9.60
2017-11-13T13:36:35.553Z,9.60
2017-11-13T13:39:07.469Z,9.60
2017-11-13T13:41:39.354Z,9.60
2017-11-13T13:44:11.240Z,9.70
2017-11-13T13:46:43.122Z,9.70
2017-11-13T13:49:15.794Z,9.60
2017-11-13T13:51:47.665Z,9.50
2017-11-13T13:54:20.334Z,9.50
2017-11-13T13:56:52.199Z,9.50
2017-11-13T13:59:24.118Z,9.50
2017-11-13T14:01:56.000Z,9.50
2017-11-13T14:04:28.677Z,9.50
2017-11-13T14:07:00.553Z,9.50
2017-11-13T14:09:32.440Z,9.50
2017-11-13T14:12:04.320Z,9.60
2017-11-13T14:14:36.221Z,9.60
2017-11-13T14:17:08.101Z,9.60
2017-11-13T14:19:40.765Z,9.70
2017-11-13T14:22:12.648Z,9.60
2017-11-13T14:24:45.339Z,9.60
2017-11-13T14:27:17.981Z,9.50
2017-11-13T14:29:49.893Z,9.50
2017-11-13T14:32:21.764Z,9.50
2017-11-13T14:34:53.670Z,9.50
2017-11-13T14:37:25.550Z,9.40
2017-11-13T14:39:58.251Z,9.30
2017-11-13T14:42:30.203Z,9.20
2017-11-13T14:45:02.134Z,9.20
2017-11-13T14:47:34.160Z,9.20
2017-11-13T14:50:06.341Z,9.20
2017-11-13T14:52:38.228Z,9.20
2017-11-13T14:55:10.155Z,9.10
2017-11-13T14:57:42.025Z,9.10
2017-11-13T15:00:13.935Z,9.10
2017-11-13T15:02:46.361Z,9.10
2017-11-13T15:05:18.253Z,9.10
2017-11-13T15:07:50.892Z,9.10
2017-11-13T15:10:22.783Z,9.10
2017-11-13T15:12:54.645Z,9.10
2017-11-13T15:15:27.313Z,9.10
2017-11-13T15:17:59.206Z,9.00
2017-11-13T15:20:31.153Z,9.00
2017-11-13T15:23:04.093Z,9.00
2017-11-13T15:25:36.266Z,9.00
2017-11-13T15:28:08.157Z,8.90
2017-11-13T15:30:40.067Z,8.80
2017-11-13T15:33:11.933Z,8.80
2017-11-13T15:35:43.829Z,8.70
2017-11-13T15:38:15.704Z,8.60
2017-11-13T15:40:47.613Z,8.60
2017-11-13T15:43:19.486Z,8.50
2017-11-13T15:45:51.393Z,8.50
2017-11-13T15:48:24.037Z,8.30
2017-11-13T15:50:55.952Z,8.30
2017-11-13T15:53:27.830Z,8.30
2017-11-13T15:55:59.745Z,8.30
2017-11-13T15:58:32.377Z,8.20
2017-11-13T16:01:04.286Z,8.20
2017-11-13T16:03:36.925Z,8.10
2017-11-13T16:06:08.836Z,8.10
2017-11-13T16:08:40.705Z,8.10
2017-11-13T16:11:12.614Z,8.00
2017-11-13T16:13:44.489Z,8.00
2017-11-13T16:16:16.381Z,7.90
2017-11-13T16:18:48.257Z,7.90
2017-11-13T16:21:20.208Z,7.80
2017-11-13T16:23:52.079Z,7.80
2017-11-13T16:26:24.004Z,7.70
2017-11-13T16:28:56.648Z,7.60
2017-11-13T16:31:28.569Z,7.60
2017-11-13T16:34:00.456Z,7.60
2017-11-13T16:36:32.365Z,7.50
2017-11-13T16:39:05.021Z,7.50
2017-11-13T16:41:36.917Z,7.50
2017-11-13T16:44:08.800Z,7.40
2017-11-13T16:46:40.706Z,7.40
2017-11-13T16:49:12.669Z,7.40
2017-11-13T16:51:44.573Z,7.40
2017-11-13T16:54:16.470Z,7.40
2017-11-13T16:56:48.453Z,7.40
2017-11-13T16:59:20.333Z,7.40
2017-11-13T17:01:52.993Z,7.40
2017-11-13T17:04:24.868Z,7.40
2017-11-13T17:06:57.545Z,7.50
2017-11-13T17:09:30.187Z,7.50
2017-11-13T17:12:02.112Z,7.50
2017-11-13T17:14:33.984Z,7.50
2017-11-13T17:17:05.883Z,7.50
2017-11-13T17:19:37.764Z,7.50
2017-11-13T17:22:10.459Z,7.40
2017-11-13T17:24:43.098Z,7.40
2017-11-13T17:27:15.006Z,7.40
2017-11-13T17:29:46.885Z,7.40
2017-11-13T17:32:18.773Z,7.40
2017-11-13T17:34:50.649Z,7.40
2017-11-13T17:37:22.557Z,7.30
2017-11-13T17:39:54.424Z,7.30
2017-11-13T17:42:26.317Z,7.30
2017-11-13T17:44:58.189Z,7.30
2017-11-13T17:47:30.088Z,7.30
2017-11-13T17:50:01.957Z,7.30
2017-11-13T17:52:33.885Z,7.30
2017-11-13T17:55:06.640Z,7.20
2017-11-13T17:57:39.325Z,7.30
2017-11-13T18:00:11.209Z,7.20
2017-11-13T18:02:43.946Z,7.20
2017-11-13T18:05:16.903Z,7.20
2017-11-13T18:07:48.860Z,7.10
2017-11-13T18:10:20.739Z,7.10
2017-11-13T18:12:53.736Z,7.00
2017-11-13T18:15:25.678Z,7.00
2017-11-13T18:17:57.566Z,6.90
2017-11-13T18:20:30.338Z,6.90
2017-11-13T18:23:02.245Z,6.80
2017-11-13T18:25:35.007Z,6.70
2017-11-13T18:28:07.673Z,6.70
2017-11-13T18:30:39.622Z,6.70
2017-11-13T18:33:11.543Z,6.70
2017-11-13T18:35:43.405Z,6.70
2017-11-13T18:38:15.313Z,6.70
2017-11-13T18:40:47.179Z,6.70
2017-11-13T18:43:19.081Z,6.70
2017-11-13T18:45:50.968Z,6.70
2017-11-13T18:48:22.853Z,6.70
2017-11-13T18:50:54.811Z,6.70
2017-11-13T18:53:26.765Z,6.70
2017-11-13T18:55:58.734Z,6.70
2017-11-13T18:58:30.658Z,6.70
2017-11-13T19:01:02.538Z,6.70
2017-11-13T19:03:34.463Z,6.70
2017-11-13T19:06:07.193Z,6.70
2017-11-13T19:08:39.160Z,6.70
2017-11-13T19:11:11.119Z,6.80
2017-11-13T19:13:43.158Z,6.80
2017-11-13T19:16:15.037Z,6.80
2017-11-13T19:18:47.094Z,6.90
2017-11-13T19:21:18.970Z,6.90
2017-11-13T19:23:50.909Z,6.90
2017-11-13T19:26:22.781Z,6.90
2017-11-13T19:28:54.684Z,6.90
2017-11-13T19:31:27.329Z,7.00
2017-11-13T19:33:59.224Z,7.00
2017-11-13T19:36:31.865Z,7.00
2017-11-13T19:39:03.785Z,7.00
2017-11-13T19:41:35.652Z,7.00
2017-11-13T19:44:07.694Z,7.00
2017-11-13T19:46:39.580Z,7.00
2017-11-13T19:49:11.509Z,7.00
2017-11-13T19:51:44.144Z,6.90
2017-11-13T19:54:16.033Z,6.90
2017-11-13T19:56:47.977Z,6.80
2017-11-13T19:59:19.855Z,6.80
2017-11-13T20:01:51.756Z,6.70
2017-11-13T20:04:23.649Z,6.70
2017-11-13T20:06:55.517Z,6.60
2017-11-13T20:09:27.401Z,6.50
2017-11-13T20:11:59.265Z,6.40
2017-11-13T20:14:31.921Z,6.30
2017-11-13T20:17:04.044Z,6.30
2017-11-13T20:19:35.953Z,6.20
2017-11-13T20:22:07.826Z,6.20
2017-11-13T20:24:39.727Z,6.10
2017-11-13T20:27:11.721Z,6.10
2017-11-13T20:29:43.941Z,6.00
2017-11-13T20:32:15.877Z,6.00
2017-11-13T20:34:48.583Z,5.90
2017-11-13T20:37:20.477Z,5.90
2017-11-13T20:39:52.393Z,5.90
2017-11-13T20:42:25.128Z,5.80
2017-11-13T20:44:57.101Z,5.80
2017-11-13T20:47:28.996Z,5.80
2017-11-13T20:50:01.668Z,5.80
2017-11-13T20:52:34.304Z,5.70
